createdAt,value
2019-03-20T00:02:49.274Z,101628.80
2019-03-20T00:06:56.541Z,101631.42
2019-03-20T00:11:03.471Z,101630.69
2019-03-20T00:15:12.010Z,101633.33
2019-03-20T00:19:19.014Z,101629.11
2019-03-20T00:23:26.033Z,101625.45
2019-03-20T00:27:33.058Z,101627.31
2019-03-20T00:31:39.882Z,101624.77
2019-03-20T00:35:47.929Z,101625.54
2019-03-20T00:39:54.877Z,101624.53
2019-03-20T00:44:01.732Z,101625.06
2019-03-20T00:48:08.621Z,101619.33
2019-03-20T00:52:15.555Z,101624.86
2019-03-20T00:56:22.476Z,101621.47
2019-03-20T01:00:29.436Z,101618.02
2019-03-20T01:04:36.280Z,101621.38
2019-03-20T01:08:43.107Z,101629.91
2019-03-20T01:12:50.106Z,101625.50
2019-03-20T01:16:57.269Z,101628.64
2019-03-20T01:21:04.214Z,101622.69
2019-03-20T01:25:12.386Z,101621.81
2019-03-20T01:29:19.325Z,101617.78
2019-03-20T01:33:26.270Z,101618.09
2019-03-20T01:37:33.123Z,101615.41
2019-03-20T01:41:40.017Z,101611.74
2019-03-20T01:45:46.869Z,101609.80
2019-03-20T01:49:53.687Z,101610.88
2019-03-20T01:54:00.513Z,101605.20
2019-03-20T01:58:07.598Z,101620.14
2019-03-20T02:02:14.800Z,101618.79
2019-03-20T02:06:21.764Z,101622.09
2019-03-20T02:10:28.601Z,101620.00
2019-03-20T02:14:35.665Z,101626.24
2019-03-20T02:18:42.635Z,101628.27
2019-03-20T02:22:49.627Z,101627.13
2019-03-20T02:26:56.441Z,101623.70
2019-03-20T02:31:03.261Z,101633.25
2019-03-20T02:35:10.314Z,101635.69
2019-03-20T02:39:17.415Z,101636.73
2019-03-20T02:43:24.367Z,101638.72
2019-03-20T02:47:31.221Z,101656.95
2019-03-20T02:51:38.107Z,101655.02
2019-03-20T02:55:45.029Z,101664.41
2019-03-20T02:59:51.898Z,101658.81
2019-03-20T03:03:58.852Z,101655.89
2019-03-20T03:08:05.921Z,101654.76
2019-03-20T03:12:12.848Z,101648.42
2019-03-20T03:16:19.816Z,101650.31
2019-03-20T03:20:26.632Z,101652.17
2019-03-20T03:24:33.566Z,101655.91
2019-03-20T03:28:40.442Z,101658.62
2019-03-20T03:32:47.712Z,101653.93
2019-03-20T03:36:54.636Z,101661.05
2019-03-20T03:41:01.529Z,101658.98
2019-03-20T03:45:10.075Z,101651.73
2019-03-20T03:49:17.012Z,101653.45
2019-03-20T03:53:24.072Z,101662.48
2019-03-20T03:57:31.034Z,101660.71
2019-03-20T04:01:37.838Z,101663.87
2019-03-20T04:05:44.690Z,101672.77
2019-03-20T04:09:51.546Z,101682.55
2019-03-20T04:13:58.396Z,101668.85
2019-03-20T04:18:05.528Z,101672.22
2019-03-20T04:22:12.442Z,101676.52
2019-03-20T04:26:20.341Z,101678.66
2019-03-20T04:30:27.197Z,101690.42
2019-03-20T04:34:34.062Z,101683.70
2019-03-20T04:38:41.581Z,101680.06
2019-03-20T04:42:48.437Z,101686.61
2019-03-20T04:46:55.314Z,101688.83
2019-03-20T04:51:02.239Z,101681.92
2019-03-20T04:55:09.551Z,101685.30
2019-03-20T04:59:16.611Z,101693.03
2019-03-20T05:03:23.585Z,101692.64
2019-03-20T05:07:31.251Z,101709.33
2019-03-20T05:11:38.441Z,101712.22
2019-03-20T05:15:45.383Z,101723.88
2019-03-20T05:19:52.528Z,101726.93
2019-03-20T05:23:59.813Z,101726.47
2019-03-20T05:28:06.928Z,101728.50
2019-03-20T05:32:14.906Z,101736.70
2019-03-20T05:36:23.668Z,101736.88
2019-03-20T05:40:30.558Z,101742.65
2019-03-20T05:44:37.561Z,101752.91
2019-03-20T05:48:44.727Z,101750.75
2019-03-20T05:52:51.966Z,101754.17
2019-03-20T05:56:59.145Z,101764.61
2019-03-20T06:01:06.681Z,101766.47
2019-03-20T06:05:14.141Z,101771.14
2019-03-20T06:09:21.391Z,101777.83
2019-03-20T06:13:28.380Z,101781.92
2019-03-20T06:17:35.532Z,101773.70
2019-03-20T06:21:42.383Z,101776.09
2019-03-20T06:25:51.419Z,101779.19
2019-03-20T06:29:58.130Z,101777.98
2019-03-20T06:34:05.071Z,101778.31
2019-03-20T06:38:12.103Z,101782.67
2019-03-20T06:42:20.079Z,101784.23
2019-03-20T06:46:27.158Z,101781.75
2019-03-20T06:50:34.056Z,101797.38
2019-03-20T06:54:41.913Z,101799.45
2019-03-20T06:58:50.400Z,101806.94
2019-03-20T07:02:58.193Z,101813.31
2019-03-20T07:07:43.679Z,101819.69
2019-03-20T07:11:43.527Z,101826.33
2019-03-20T07:19:56.266Z,101819.55
2019-03-20T07:24:03.384Z,101831.92
2019-03-20T07:28:10.613Z,101823.89
2019-03-20T07:32:17.861Z,101836.80
2019-03-20T07:49:33.484Z,101838.27
2019-03-20T07:53:42.929Z,101840.90
2019-03-20T07:57:50.108Z,101834.77
2019-03-20T08:02:00.183Z,101835.98
2019-03-20T08:06:07.648Z,101834.09
2019-03-20T08:10:15.339Z,101833.66
2019-03-20T08:14:33.591Z,101851.42
2019-03-20T08:18:41.254Z,101851.75
2019-03-20T08:22:48.391Z,101859.39
2019-03-20T08:26:58.766Z,101868.48
2019-03-20T08:31:06.348Z,101877.03
2019-03-20T08:35:13.599Z,101883.34
2019-03-20T08:39:21.033Z,101891.69
2019-03-20T08:43:29.910Z,101886.86
2019-03-20T08:47:36.880Z,101890.84
2019-03-20T08:51:44.136Z,101893.63
2019-03-20T08:55:51.001Z,101893.74
2019-03-20T09:00:01.367Z,101899.04
2019-03-20T09:04:09.795Z,101897.52
2019-03-20T09:08:16.887Z,101903.84
2019-03-20T09:12:23.842Z,101901.06
2019-03-20T09:16:31.998Z,101905.94
2019-03-20T09:20:39.192Z,101905.06
2019-03-20T09:24:46.658Z,101908.55
2019-03-20T09:28:53.767Z,101909.89
2019-03-20T09:33:01.816Z,101917.84
2019-03-20T09:37:12.281Z,101913.20
2019-03-20T09:41:19.576Z,101922.41
2019-03-20T09:45:26.955Z,101922.33
2019-03-20T09:49:40.532Z,101914.36
2019-03-20T09:53:47.692Z,101912.86
2019-03-20T09:57:54.941Z,101915.33
2019-03-20T10:02:02.999Z,101918.36
2019-03-20T10:06:10.350Z,101913.86
2019-03-20T10:10:20.225Z,101914.35
2019-03-20T10:14:33.412Z,101913.38
2019-03-20T10:18:41.655Z,101913.14
2019-03-20T10:22:50.601Z,101919.17
2019-03-20T10:26:57.914Z,101913.84
2019-03-20T10:31:08.319Z,101915.88
2019-03-20T10:35:16.557Z,101909.92
2019-03-20T10:39:25.379Z,101909.61
2019-03-20T10:43:34.211Z,101908.20
2019-03-20T10:47:41.710Z,101916.76
2019-03-20T10:51:49.009Z,101910.69
2019-03-20T10:55:56.281Z,101903.09
2019-03-20T11:00:05.097Z,101903.66
2019-03-20T11:04:13.056Z,101903.63
2019-03-20T11:08:20.215Z,101887.91
2019-03-20T11:12:27.336Z,101895.61
2019-03-20T11:16:34.493Z,101883.05
2019-03-20T11:20:41.500Z,101888.20
2019-03-20T11:24:51.512Z,101884.41
2019-03-20T11:29:02.087Z,101885.11
2019-03-20T11:33:21.569Z,101887.03
2019-03-20T11:37:43.308Z,101883.20
2019-03-20T11:41:51.483Z,101881.89
2019-03-20T11:45:58.590Z,101878.22
2019-03-20T11:50:15.990Z,101876.12
2019-03-20T11:54:23.313Z,101873.19
2019-03-20T11:58:36.857Z,101867.50
2019-03-20T12:02:47.459Z,101862.09
2019-03-20T12:06:55.460Z,101858.19
2019-03-20T12:11:10.886Z,101850.05
2019-03-20T12:15:21.314Z,101842.16
2019-03-20T12:19:32.231Z,101835.00
2019-03-20T12:23:45.413Z,101829.16
2019-03-20T12:27:58.652Z,101828.26
2019-03-20T12:32:08.548Z,101831.73
2019-03-20T12:36:15.814Z,101831.42
2019-03-20T12:40:26.995Z,101829.66
2019-03-20T12:44:49.333Z,101835.55
2019-03-20T12:49:11.466Z,101828.55
2019-03-20T12:53:19.159Z,101829.77
2019-03-20T12:57:43.575Z,101815.75
2019-03-20T13:01:53.142Z,101818.61
2019-03-20T13:06:04.902Z,101813.13
2019-03-20T13:10:24.563Z,101810.78
2019-03-20T13:14:39.370Z,101814.56
2019-03-20T13:18:58.229Z,101803.48
2019-03-20T13:23:14.417Z,101802.34
2019-03-20T13:27:25.565Z,101801.47
2019-03-20T13:31:34.173Z,101797.88
2019-03-20T13:36:09.152Z,101796.02
2019-03-20T13:40:16.802Z,101793.29
2019-03-20T13:44:24.000Z,101783.73
2019-03-20T13:48:39.318Z,101790.04
2019-03-20T13:52:49.645Z,101789.30
2019-03-20T13:57:02.329Z,101783.84
2019-03-20T14:17:53.345Z,101777.25
2019-03-20T14:22:15.542Z,101774.77
2019-03-20T14:26:49.070Z,101767.80
2019-03-20T14:31:24.095Z,101773.98
2019-03-20T14:35:42.991Z,101769.83
2019-03-20T14:50:31.270Z,101758.78
2019-03-20T15:10:34.643Z,101787.58
2019-03-20T15:15:31.146Z,101772.31
2019-03-20T15:19:54.291Z,101771.73
2019-03-20T15:25:11.983Z,101767.64
2019-03-20T15:33:43.980Z,101751.74
2019-03-20T15:37:50.950Z,101747.61
2019-03-20T15:42:00.615Z,101743.88
2019-03-20T15:46:17.883Z,101746.73
2019-03-20T15:50:28.117Z,101748.34
2019-03-20T15:54:35.049Z,101749.20
2019-03-20T15:58:44.424Z,101748.80
2019-03-20T16:03:01.857Z,101741.38
2019-03-20T16:07:17.437Z,101739.72
2019-03-20T16:11:25.559Z,101742.52
2019-03-20T16:15:33.549Z,101741.17
2019-03-20T16:19:44.324Z,101736.38
2019-03-20T16:23:51.503Z,101733.65
2019-03-20T16:28:10.889Z,101737.00
2019-03-20T16:43:30.353Z,101730.28
2019-03-20T16:47:39.389Z,101732.79
2019-03-20T16:52:24.231Z,101735.33
2019-03-20T16:56:45.887Z,101733.81
2019-03-20T17:01:47.722Z,101731.16
2019-03-20T17:06:48.542Z,101728.17
2019-03-20T17:10:58.166Z,101731.86
2019-03-20T17:15:20.198Z,101729.34
2019-03-20T17:25:13.246Z,101731.50
2019-03-20T17:29:08.994Z,101738.46
2019-03-20T17:33:11.649Z,101741.08
2019-03-20T17:38:24.433Z,101743.41
2019-03-20T17:42:32.447Z,101745.20
2019-03-20T17:46:40.382Z,101737.73
2019-03-20T17:51:10.762Z,101754.94
2019-03-20T17:55:39.072Z,101758.08
2019-03-20T18:00:23.592Z,101761.39
2019-03-20T18:04:40.671Z,101760.55
2019-03-20T18:09:21.413Z,101764.81
2019-03-20T18:13:35.104Z,101777.05
2019-03-20T18:17:46.507Z,101771.55
2019-03-20T18:22:16.578Z,101775.78
2019-03-20T18:26:26.688Z,101783.20
2019-03-20T18:30:34.119Z,101787.81
2019-03-20T18:35:04.324Z,101786.78
2019-03-20T18:39:14.611Z,101789.56
2019-03-20T18:43:23.928Z,101789.98
2019-03-20T18:47:31.649Z,101788.76
2019-03-20T18:51:50.392Z,101794.18
2019-03-20T18:56:28.318Z,101791.33
2019-03-20T19:01:10.109Z,101790.08
2019-03-20T19:06:29.689Z,101793.34
2019-03-20T19:15:45.639Z,101800.38
2019-03-20T19:20:01.805Z,101793.91
2019-03-20T19:24:11.776Z,101798.50
2019-03-20T19:28:25.016Z,101802.13
2019-03-20T19:32:33.838Z,101808.41
2019-03-20T19:36:40.993Z,101803.56
2019-03-20T19:40:48.768Z,101809.91
2019-03-20T19:44:58.435Z,101808.88
2019-03-20T19:49:05.526Z,101817.15
2019-03-20T19:53:19.474Z,101820.72
2019-03-20T19:57:30.290Z,101821.16
2019-03-20T20:01:38.470Z,101829.84
2019-03-20T20:05:45.373Z,101827.69
2019-03-20T20:09:52.113Z,101820.63
2019-03-20T20:13:59.439Z,101823.91
2019-03-20T20:18:06.679Z,101829.30
2019-03-20T20:22:17.643Z,101835.69
2019-03-20T20:26:33.205Z,101832.74
2019-03-20T20:30:46.051Z,101839.11
2019-03-20T20:34:54.921Z,101837.38
2019-03-20T20:39:02.274Z,101843.95
2019-03-20T20:43:11.707Z,101841.40
2019-03-20T20:47:21.764Z,101841.11
2019-03-20T20:51:31.266Z,101841.50
2019-03-20T20:55:38.374Z,101843.92
2019-03-20T20:59:46.751Z,101852.30
2019-03-20T21:03:53.571Z,101852.57
2019-03-20T21:08:00.932Z,101847.19
2019-03-20T21:12:07.777Z,101846.39
2019-03-20T21:16:18.644Z,101843.27
2019-03-20T21:20:26.554Z,101844.38
2019-03-20T21:24:36.934Z,101848.45
2019-03-20T21:29:54.770Z,101853.38
2019-03-20T21:34:59.495Z,101852.28
2019-03-20T21:39:09.556Z,101840.27
2019-03-20T21:44:19.095Z,101851.23
2019-03-20T21:48:26.869Z,101851.03
2019-03-20T21:52:37.252Z,101857.89
2019-03-20T21:57:16.487Z,101863.18
2019-03-20T22:02:43.274Z,101863.06
2019-03-20T22:07:24.882Z,101865.02
2019-03-20T22:12:19.128Z,101867.39
2019-03-20T22:17:15.111Z,101870.42
2019-03-20T22:22:28.409Z,101866.98
2019-03-20T22:27:47.207Z,101868.22
2019-03-20T22:32:40.208Z,101868.47
2019-03-20T22:36:47.979Z,101864.71
2019-03-20T22:41:40.423Z,101864.85
2019-03-20T22:47:14.707Z,101861.64
2019-03-20T22:52:04.670Z,101859.98
2019-03-20T22:57:03.121Z,101858.27
2019-03-20T23:01:12.752Z,101864.23
2019-03-20T23:05:20.897Z,101863.24
2019-03-20T23:09:28.831Z,101860.68
2019-03-20T23:13:41.827Z,101857.35
2019-03-20T23:17:47.629Z,101853.61
2019-03-20T23:21:55.280Z,101860.42
2019-03-20T23:26:02.962Z,101852.70
2019-03-20T23:30:16.396Z,101858.98
2019-03-20T23:34:24.042Z,101859.62
2019-03-20T23:38:31.653Z,101853.20
2019-03-20T23:42:39.395Z,101850.06
2019-03-20T23:46:47.031Z,101845.66
2019-03-20T23:51:01.108Z,101848.27
2019-03-20T23:55:11.736Z,101845.15
2019-03-20T23:59:19.460Z,101848.20
